Terminal Aerodrome Forecast
Issued by NWS

Home | Current Version | Previous Version | Text Only | Print | Product List | Glossary On
Versions: 1 2 3 4 5 6 7 8 9 10 11 12 13 14 15 16 17 18 19 20 21 22 23
000
FTUS45 KLKN 202300
TAFTPH
TAF
KTPH 202320Z 2100/2124 19013G23KT P6SM SCT100
     FM210100 36009KT P6SM FEW100
     FM212000 20013G23KT P6SM FEW100=

USA.gov is the U.S. government's official web portal to all federal, state and local government web resources and services.